sensor_id;sensor_type;location;lat;lon;timestamp;temperature;humidity
19817;DHT22;68323;49.394;8.434;2023-04-08T00:00:48;9.10;99.90
19817;DHT22;68323;49.394;8.434;2023-04-08T00:03:15;9.20;99.90
19817;DHT22;68323;49.394;8.434;2023-04-08T00:05:40;9.20;99.90
19817;DHT22;68323;49.394;8.434;2023-04-08T00:08:06;9.20;99.90
19817;DHT22;68323;49.394;8.434;2023-04-08T00:10:32;9.30;99.90
19817;DHT22;68323;49.394;8.434;2023-04-08T00:12:58;9.30;99.90
19817;DHT22;68323;49.394;8.434;2023-04-08T00:15:25;9.30;99.90
19817;DHT22;68323;49.394;8.434;2023-04-08T00:17:50;9.40;99.90
19817;DHT22;68323;49.394;8.434;2023-04-08T00:20:19;9.40;99.90
19817;DHT22;68323;49.394;8.434;2023-04-08T00:22:44;9.40;99.90
19817;DHT22;68323;49.394;8.434;2023-04-08T00:25:10;9.50;99.90
19817;DHT22;68323;49.394;8.434;2023-04-08T00:27:35;9.50;99.90
19817;DHT22;68323;49.394;8.434;2023-04-08T00:30:01;9.50;99.90
19817;DHT22;68323;49.394;8.434;2023-04-08T00:32:27;9.60;99.90
19817;DHT22;68323;49.394;8.434;2023-04-08T00:34:53;9.60;99.90
19817;DHT22;68323;49.394;8.434;2023-04-08T00:37:19;9.60;99.90
19817;DHT22;68323;49.394;8.434;2023-04-08T00:39:45;9.60;99.90
19817;DHT22;68323;49.394;8.434;2023-04-08T00:42:11;9.70;99.90
19817;DHT22;68323;49.394;8.434;2023-04-08T00:44:36;9.70;99.90
19817;DHT22;68323;49.394;8.434;2023-04-08T00:47:03;9.80;99.90
19817;DHT22;68323;49.394;8.434;2023-04-08T00:49:30;9.80;99.90
19817;DHT22;68323;49.394;8.434;2023-04-08T00:51:55;9.80;99.90
19817;DHT22;68323;49.394;8.434;2023-04-08T00:54:21;9.80;99.90
19817;DHT22;68323;49.394;8.434;2023-04-08T00:56:47;9.80;99.90
19817;DHT22;68323;49.394;8.434;2023-04-08T00:59:13;9.80;99.90
19817;DHT22;68323;49.394;8.434;2023-04-08T01:01:49;9.80;99.90
19817;DHT22;68323;49.394;8.434;2023-04-08T01:04:26;9.90;99.90
19817;DHT22;68323;49.394;8.434;2023-04-08T01:07:12;9.90;99.90
19817;DHT22;68323;49.394;8.434;2023-04-08T01:09:44;9.90;99.90
19817;DHT22;68323;49.394;8.434;2023-04-08T01:12:11;9.90;99.90
19817;DHT22;68323;49.394;8.434;2023-04-08T01:14:42;9.90;99.90
19817;DHT22;68323;49.394;8.434;2023-04-08T01:17:09;9.90;99.90
19817;DHT22;68323;49.394;8.434;2023-04-08T01:19:38;9.90;99.90
19817;DHT22;68323;49.394;8.434;2023-04-08T01:22:14;9.90;99.90
19817;DHT22;68323;49.394;8.434;2023-04-08T01:24:44;10.00;99.90
19817;DHT22;68323;49.394;8.434;2023-04-08T01:27:12;10.00;99.90
19817;DHT22;68323;49.394;8.434;2023-04-08T01:29:38;10.00;99.90
19817;DHT22;68323;49.394;8.434;2023-04-08T01:32:06;10.10;99.90
19817;DHT22;68323;49.394;8.434;2023-04-08T01:34:33;10.10;99.90
19817;DHT22;68323;49.394;8.434;2023-04-08T01:37:01;10.10;99.90
19817;DHT22;68323;49.394;8.434;2023-04-08T01:39:27;10.10;99.90
19817;DHT22;68323;49.394;8.434;2023-04-08T01:41:55;10.10;99.90
19817;DHT22;68323;49.394;8.434;2023-04-08T01:44:23;10.10;99.90
19817;DHT22;68323;49.394;8.434;2023-04-08T01:46:51;10.10;99.90
19817;DHT22;68323;49.394;8.434;2023-04-08T01:49:18;10.10;99.90
19817;DHT22;68323;49.394;8.434;2023-04-08T01:51:44;10.00;99.90
19817;DHT22;68323;49.394;8.434;2023-04-08T01:54:11;10.00;99.90
19817;DHT22;68323;49.394;8.434;2023-04-08T01:56:39;10.00;99.90
19817;DHT22;68323;49.394;8.434;2023-04-08T01:59:09;9.90;99.90
19817;DHT22;68323;49.394;8.434;2023-04-08T02:01:36;9.90;99.90
19817;DHT22;68323;49.394;8.434;2023-04-08T02:04:02;9.90;99.90
19817;DHT22;68323;49.394;8.434;2023-04-08T02:06:28;9.80;99.90
19817;DHT22;68323;49.394;8.434;2023-04-08T02:08:55;9.80;99.90
19817;DHT22;68323;49.394;8.434;2023-04-08T02:11:21;9.70;99.90
19817;DHT22;68323;49.394;8.434;2023-04-08T02:13:47;9.70;99.90
19817;DHT22;68323;49.394;8.434;2023-04-08T02:19:16;9.60;99.90
19817;DHT22;68323;49.394;8.434;2023-04-08T02:21:48;9.60;99.90
19817;DHT22;68323;49.394;8.434;2023-04-08T02:24:17;9.50;99.90
19817;DHT22;68323;49.394;8.434;2023-04-08T02:26:43;9.50;99.90
19817;DHT22;68323;49.394;8.434;2023-04-08T02:29:14;9.40;99.90
19817;DHT22;68323;49.394;8.434;2023-04-08T02:31:43;9.40;99.90
19817;DHT22;68323;49.394;8.434;2023-04-08T02:34:10;9.30;99.90
19817;DHT22;68323;49.394;8.434;2023-04-08T02:36:36;9.30;99.90
19817;DHT22;68323;49.394;8.434;2023-04-08T02:39:03;9.20;99.90
19817;DHT22;68323;49.394;8.434;2023-04-08T02:41:29;9.30;99.90
19817;DHT22;68323;49.394;8.434;2023-04-08T02:43:56;9.30;99.90
19817;DHT22;68323;49.394;8.434;2023-04-08T02:46:21;9.30;99.90
19817;DHT22;68323;49.394;8.434;2023-04-08T02:48:47;9.30;99.90
19817;DHT22;68323;49.394;8.434;2023-04-08T02:51:12;9.20;99.90
19817;DHT22;68323;49.394;8.434;2023-04-08T02:53:38;9.20;99.90
19817;DHT22;68323;49.394;8.434;2023-04-08T02:56:04;9.10;99.90
19817;DHT22;68323;49.394;8.434;2023-04-08T02:58:30;9.10;99.90
19817;DHT22;68323;49.394;8.434;2023-04-08T03:00:55;9.10;99.90
19817;DHT22;68323;49.394;8.434;2023-04-08T03:03:21;9.10;99.90
19817;DHT22;68323;49.394;8.434;2023-04-08T03:05:52;9.10;99.90
19817;DHT22;68323;49.394;8.434;2023-04-08T03:08:18;9.10;99.90
19817;DHT22;68323;49.394;8.434;2023-04-08T03:10:44;9.00;99.90
19817;DHT22;68323;49.394;8.434;2023-04-08T03:13:09;9.00;99.90
19817;DHT22;68323;49.394;8.434;2023-04-08T03:15:35;9.00;99.90
19817;DHT22;68323;49.394;8.434;2023-04-08T03:18:01;9.00;99.90
19817;DHT22;68323;49.394;8.434;2023-04-08T03:20:26;8.90;99.90
19817;DHT22;68323;49.394;8.434;2023-04-08T03:22:52;8.90;99.90
19817;DHT22;68323;49.394;8.434;2023-04-08T03:25:17;8.90;99.90
19817;DHT22;68323;49.394;8.434;2023-04-08T03:27:43;8.80;99.90
19817;DHT22;68323;49.394;8.434;2023-04-08T03:30:09;8.80;99.90
19817;DHT22;68323;49.394;8.434;2023-04-08T03:32:34;8.80;99.90
19817;DHT22;68323;49.394;8.434;2023-04-08T03:35:00;8.80;99.90
19817;DHT22;68323;49.394;8.434;2023-04-08T03:37:25;8.80;99.90
19817;DHT22;68323;49.394;8.434;2023-04-08T03:39:51;8.80;99.90
19817;DHT22;68323;49.394;8.434;2023-04-08T03:42:17;8.80;99.90
19817;DHT22;68323;49.394;8.434;2023-04-08T03:44:42;8.80;99.90
19817;DHT22;68323;49.394;8.434;2023-04-08T03:47:08;8.80;99.90
19817;DHT22;68323;49.394;8.434;2023-04-08T03:49:33;8.90;99.90
19817;DHT22;68323;49.394;8.434;2023-04-08T03:51:59;8.90;99.90
19817;DHT22;68323;49.394;8.434;2023-04-08T03:54:24;8.90;99.90
19817;DHT22;68323;49.394;8.434;2023-04-08T03:56:50;9.00;99.90
19817;DHT22;68323;49.394;8.434;2023-04-08T03:59:15;9.00;99.90
19817;DHT22;68323;49.394;8.434;2023-04-08T04:01:41;9.10;99.90
19817;DHT22;68323;49.394;8.434;2023-04-08T04:04:06;9.10;99.90
19817;DHT22;68323;49.394;8.434;2023-04-08T04:06:32;9.10;99.90
19817;DHT22;68323;49.394;8.434;2023-04-08T04:08:57;9.10;99.90
19817;DHT22;68323;49.394;8.434;2023-04-08T04:11:23;9.20;99.90
19817;DHT22;68323;49.394;8.434;2023-04-08T04:13:49;9.20;99.90
19817;DHT22;68323;49.394;8.434;2023-04-08T04:16:14;9.20;99.90
19817;DHT22;68323;49.394;8.434;2023-04-08T04:18:40;9.30;99.90
19817;DHT22;68323;49.394;8.434;2023-04-08T04:21:05;9.30;99.90
19817;DHT22;68323;49.394;8.434;2023-04-08T04:23:34;9.30;99.90
19817;DHT22;68323;49.394;8.434;2023-04-08T04:25:59;9.30;99.90
19817;DHT22;68323;49.394;8.434;2023-04-08T04:28:25;9.30;99.90
19817;DHT22;68323;49.394;8.434;2023-04-08T04:30:51;9.40;99.90
19817;DHT22;68323;49.394;8.434;2023-04-08T04:33:16;9.40;99.90
19817;DHT22;68323;49.394;8.434;2023-04-08T04:35:42;9.40;99.90
19817;DHT22;68323;49.394;8.434;2023-04-08T04:38:08;9.40;99.90
19817;DHT22;68323;49.394;8.434;2023-04-08T04:40:37;9.40;99.90
19817;DHT22;68323;49.394;8.434;2023-04-08T04:43:02;9.40;99.90
19817;DHT22;68323;49.394;8.434;2023-04-08T04:45:28;9.40;99.90
19817;DHT22;68323;49.394;8.434;2023-04-08T04:47:53;9.40;99.90
19817;DHT22;68323;49.394;8.434;2023-04-08T04:50:19;9.40;99.90
19817;DHT22;68323;49.394;8.434;2023-04-08T04:52:45;9.40;99.90
19817;DHT22;68323;49.394;8.434;2023-04-08T04:55:10;9.40;99.90
19817;DHT22;68323;49.394;8.434;2023-04-08T04:57:36;9.40;99.90
19817;DHT22;68323;49.394;8.434;2023-04-08T05:00:03;9.40;99.90
19817;DHT22;68323;49.394;8.434;2023-04-08T05:02:28;9.40;99.90
19817;DHT22;68323;49.394;8.434;2023-04-08T05:04:54;9.50;99.90
19817;DHT22;68323;49.394;8.434;2023-04-08T05:07:20;9.50;99.90
19817;DHT22;68323;49.394;8.434;2023-04-08T05:09:46;9.50;99.90
19817;DHT22;68323;49.394;8.434;2023-04-08T05:12:12;9.50;99.90
19817;DHT22;68323;49.394;8.434;2023-04-08T05:14:37;9.50;99.90
19817;DHT22;68323;49.394;8.434;2023-04-08T05:17:03;9.50;99.90
19817;DHT22;68323;49.394;8.434;2023-04-08T05:19:30;9.50;99.90
19817;DHT22;68323;49.394;8.434;2023-04-08T05:21:55;9.50;99.90
19817;DHT22;68323;49.394;8.434;2023-04-08T05:24:21;9.50;99.90
19817;DHT22;68323;49.394;8.434;2023-04-08T05:26:46;9.50;99.90
19817;DHT22;68323;49.394;8.434;2023-04-08T05:29:16;9.60;99.90
19817;DHT22;68323;49.394;8.434;2023-04-08T05:31:43;9.60;99.90
19817;DHT22;68323;49.394;8.434;2023-04-08T05:34:09;9.60;99.90
19817;DHT22;68323;49.394;8.434;2023-04-08T05:36:35;9.70;99.90
19817;DHT22;68323;49.394;8.434;2023-04-08T05:39:01;9.70;99.90
19817;DHT22;68323;49.394;8.434;2023-04-08T05:41:26;9.70;99.90
19817;DHT22;68323;49.394;8.434;2023-04-08T05:43:51;9.80;99.90
19817;DHT22;68323;49.394;8.434;2023-04-08T05:46:17;9.80;99.90
19817;DHT22;68323;49.394;8.434;2023-04-08T05:48:42;9.90;99.90
19817;DHT22;68323;49.394;8.434;2023-04-08T05:51:14;10.00;99.90
19817;DHT22;68323;49.394;8.434;2023-04-08T05:53:40;10.00;99.90
19817;DHT22;68323;49.394;8.434;2023-04-08T05:56:06;10.10;99.90
19817;DHT22;68323;49.394;8.434;2023-04-08T05:58:31;10.10;99.90
19817;DHT22;68323;49.394;8.434;2023-04-08T06:00:57;10.20;99.90
19817;DHT22;68323;49.394;8.434;2023-04-08T06:03:22;10.20;99.90
19817;DHT22;68323;49.394;8.434;2023-04-08T06:05:48;10.30;99.90
19817;DHT22;68323;49.394;8.434;2023-04-08T06:08:13;10.30;99.90
19817;DHT22;68323;49.394;8.434;2023-04-08T06:10:39;10.30;99.90
19817;DHT22;68323;49.394;8.434;2023-04-08T06:13:05;10.30;99.90
19817;DHT22;68323;49.394;8.434;2023-04-08T06:15:30;10.30;99.90
19817;DHT22;68323;49.394;8.434;2023-04-08T06:17:56;10.40;99.90
19817;DHT22;68323;49.394;8.434;2023-04-08T06:20:22;10.70;99.90
19817;DHT22;68323;49.394;8.434;2023-04-08T06:22:47;11.20;99.90
19817;DHT22;68323;49.394;8.434;2023-04-08T06:25:13;11.70;99.90
19817;DHT22;68323;49.394;8.434;2023-04-08T06:27:39;12.20;99.90
19817;DHT22;68323;49.394;8.434;2023-04-08T06:30:05;12.60;99.90
19817;DHT22;68323;49.394;8.434;2023-04-08T06:32:31;12.80;99.90
19817;DHT22;68323;49.394;8.434;2023-04-08T06:34:56;13.00;99.10
19817;DHT22;68323;49.394;8.434;2023-04-08T06:37:22;13.30;97.80
19817;DHT22;68323;49.394;8.434;2023-04-08T06:39:47;13.40;97.60
19817;DHT22;68323;49.394;8.434;2023-04-08T06:42:13;13.70;97.10
19817;DHT22;68323;49.394;8.434;2023-04-08T06:44:38;13.80;96.30
19817;DHT22;68323;49.394;8.434;2023-04-08T06:47:04;13.80;95.90
19817;DHT22;68323;49.394;8.434;2023-04-08T06:49:29;13.70;96.00
19817;DHT22;68323;49.394;8.434;2023-04-08T06:51:55;13.50;96.20
19817;DHT22;68323;49.394;8.434;2023-04-08T06:54:21;13.60;96.00
19817;DHT22;68323;49.394;8.434;2023-04-08T06:56:46;13.60;96.00
19817;DHT22;68323;49.394;8.434;2023-04-08T06:59:12;13.70;95.20
19817;DHT22;68323;49.394;8.434;2023-04-08T07:01:37;13.50;95.50
19817;DHT22;68323;49.394;8.434;2023-04-08T07:04:03;13.40;95.60
19817;DHT22;68323;49.394;8.434;2023-04-08T07:06:28;13.30;95.80
19817;DHT22;68323;49.394;8.434;2023-04-08T07:08:54;13.60;96.10
19817;DHT22;68323;49.394;8.434;2023-04-08T07:11:19;14.30;95.10
19817;DHT22;68323;49.394;8.434;2023-04-08T07:13:45;15.00;93.20
19817;DHT22;68323;49.394;8.434;2023-04-08T07:16:11;15.50;91.30
19817;DHT22;68323;49.394;8.434;2023-04-08T07:18:36;15.90;90.70
19817;DHT22;68323;49.394;8.434;2023-04-08T07:21:02;16.50;88.50
19817;DHT22;68323;49.394;8.434;2023-04-08T07:23:27;16.90;85.60
19817;DHT22;68323;49.394;8.434;2023-04-08T07:25:53;17.30;83.60
19817;DHT22;68323;49.394;8.434;2023-04-08T07:28:19;17.50;82.00
19817;DHT22;68323;49.394;8.434;2023-04-08T07:30:45;17.40;81.20
19817;DHT22;68323;49.394;8.434;2023-04-08T07:33:11;17.30;82.30
19817;DHT22;68323;49.394;8.434;2023-04-08T07:35:36;17.10;83.00
19817;DHT22;68323;49.394;8.434;2023-04-08T07:38:02;16.80;82.60
19817;DHT22;68323;49.394;8.434;2023-04-08T07:40:28;16.60;83.00
19817;DHT22;68323;49.394;8.434;2023-04-08T07:42:54;16.80;82.60
19817;DHT22;68323;49.394;8.434;2023-04-08T07:45:20;17.00;81.10
19817;DHT22;68323;49.394;8.434;2023-04-08T07:47:45;16.70;80.80
19817;DHT22;68323;49.394;8.434;2023-04-08T07:50:11;16.40;82.10
19817;DHT22;68323;49.394;8.434;2023-04-08T07:52:37;16.40;82.60
19817;DHT22;68323;49.394;8.434;2023-04-08T07:55:03;16.60;81.40
19817;DHT22;68323;49.394;8.434;2023-04-08T07:57:30;16.90;80.30
19817;DHT22;68323;49.394;8.434;2023-04-08T07:59:55;17.20;79.40
19817;DHT22;68323;49.394;8.434;2023-04-08T08:02:21;17.30;78.80
19817;DHT22;68323;49.394;8.434;2023-04-08T08:04:47;17.20;78.50
19817;DHT22;68323;49.394;8.434;2023-04-08T08:07:12;17.00;79.80
19817;DHT22;68323;49.394;8.434;2023-04-08T08:09:38;16.90;78.90
19817;DHT22;68323;49.394;8.434;2023-04-08T08:12:03;16.60;79.40
19817;DHT22;68323;49.394;8.434;2023-04-08T08:14:29;16.30;80.40
19817;DHT22;68323;49.394;8.434;2023-04-08T08:16:54;16.00;80.60
19817;DHT22;68323;49.394;8.434;2023-04-08T08:19:20;15.70;81.10
19817;DHT22;68323;49.394;8.434;2023-04-08T08:21:46;15.50;82.30
19817;DHT22;68323;49.394;8.434;2023-04-08T08:24:11;15.40;81.30
19817;DHT22;68323;49.394;8.434;2023-04-08T08:26:37;15.30;81.70
19817;DHT22;68323;49.394;8.434;2023-04-08T08:29:03;15.10;82.60
19817;DHT22;68323;49.394;8.434;2023-04-08T08:31:29;15.10;81.90
19817;DHT22;68323;49.394;8.434;2023-04-08T08:33:55;15.00;81.90
19817;DHT22;68323;49.394;8.434;2023-04-08T08:36:20;15.20;82.00
19817;DHT22;68323;49.394;8.434;2023-04-08T08:38:46;15.60;81.70
19817;DHT22;68323;49.394;8.434;2023-04-08T08:41:12;16.10;79.90
19817;DHT22;68323;49.394;8.434;2023-04-08T08:43:37;16.60;77.70
19817;DHT22;68323;49.394;8.434;2023-04-08T08:46:04;16.70;76.80
19817;DHT22;68323;49.394;8.434;2023-04-08T08:48:30;17.10;76.60
19817;DHT22;68323;49.394;8.434;2023-04-08T08:50:57;17.60;75.10
19817;DHT22;68323;49.394;8.434;2023-04-08T08:53:29;18.30;72.30
19817;DHT22;68323;49.394;8.434;2023-04-08T08:55:55;19.10;69.50
19817;DHT22;68323;49.394;8.434;2023-04-08T08:58:21;19.70;66.10
19817;DHT22;68323;49.394;8.434;2023-04-08T09:00:46;20.20;64.20
19817;DHT22;68323;49.394;8.434;2023-04-08T09:03:17;20.50;62.30
19817;DHT22;68323;49.394;8.434;2023-04-08T09:05:58;20.10;62.10
19817;DHT22;68323;49.394;8.434;2023-04-08T09:08:34;19.40;63.30
19817;DHT22;68323;49.394;8.434;2023-04-08T09:11:15;18.80;63.90
19817;DHT22;68323;49.394;8.434;2023-04-08T09:13:41;18.70;61.70
19817;DHT22;68323;49.394;8.434;2023-04-08T09:16:18;18.50;60.90
19817;DHT22;68323;49.394;8.434;2023-04-08T09:18:45;18.30;61.60
19817;DHT22;68323;49.394;8.434;2023-04-08T09:21:13;18.10;61.50
19817;DHT22;68323;49.394;8.434;2023-04-08T09:23:51;18.40;60.60
19817;DHT22;68323;49.394;8.434;2023-04-08T09:26:21;18.80;58.40
19817;DHT22;68323;49.394;8.434;2023-04-08T09:31:24;18.90;59.10
19817;DHT22;68323;49.394;8.434;2023-04-08T09:33:58;19.00;59.90
19817;DHT22;68323;49.394;8.434;2023-04-08T09:36:24;19.00;59.10
19817;DHT22;68323;49.394;8.434;2023-04-08T09:38:53;18.90;60.60
19817;DHT22;68323;49.394;8.434;2023-04-08T09:41:20;18.60;60.00
19817;DHT22;68323;49.394;8.434;2023-04-08T09:43:57;18.40;60.60
19817;DHT22;68323;49.394;8.434;2023-04-08T09:54:21;18.50;59.10
19817;DHT22;68323;49.394;8.434;2023-04-08T09:57:04;18.20;59.40
19817;DHT22;68323;49.394;8.434;2023-04-08T09:59:35;17.70;61.00
19817;DHT22;68323;49.394;8.434;2023-04-08T10:02:06;17.40;62.30
19817;DHT22;68323;49.394;8.434;2023-04-08T10:04:38;17.20;64.00
19817;DHT22;68323;49.394;8.434;2023-04-08T10:07:07;17.10;65.50
19817;DHT22;68323;49.394;8.434;2023-04-08T10:09:33;17.20;64.70
19817;DHT22;68323;49.394;8.434;2023-04-08T10:12:00;17.10;62.40
19817;DHT22;68323;49.394;8.434;2023-04-08T10:14:27;17.00;64.60
19817;DHT22;68323;49.394;8.434;2023-04-08T10:17:25;16.70;63.80
19817;DHT22;68323;49.394;8.434;2023-04-08T10:19:52;16.60;64.00
19817;DHT22;68323;49.394;8.434;2023-04-08T10:27:43;16.20;64.30
19817;DHT22;68323;49.394;8.434;2023-04-08T10:30:47;16.10;64.70
19817;DHT22;68323;49.394;8.434;2023-04-08T10:35:51;15.90;63.80
19817;DHT22;68323;49.394;8.434;2023-04-08T10:38:18;15.60;62.40
19817;DHT22;68323;49.394;8.434;2023-04-08T10:40:44;15.50;63.30
19817;DHT22;68323;49.394;8.434;2023-04-08T10:43:11;15.30;65.80
19817;DHT22;68323;49.394;8.434;2023-04-08T10:45:38;15.20;64.20
19817;DHT22;68323;49.394;8.434;2023-04-08T10:48:18;15.10;64.60
19817;DHT22;68323;49.394;8.434;2023-04-08T10:50:57;14.90;64.40
19817;DHT22;68323;49.394;8.434;2023-04-08T10:53:34;14.80;63.80
19817;DHT22;68323;49.394;8.434;2023-04-08T10:58:32;14.70;64.10
19817;DHT22;68323;49.394;8.434;2023-04-08T11:01:07;14.60;64.10
19817;DHT22;68323;49.394;8.434;2023-04-08T11:03:34;14.50;64.50
19817;DHT22;68323;49.394;8.434;2023-04-08T11:06:00;14.50;65.70
19817;DHT22;68323;49.394;8.434;2023-04-08T11:08:27;14.40;64.00
19817;DHT22;68323;49.394;8.434;2023-04-08T11:10:53;14.30;64.80
19817;DHT22;68323;49.394;8.434;2023-04-08T11:13:19;14.30;64.80
19817;DHT22;68323;49.394;8.434;2023-04-08T11:15:46;14.30;64.80
19817;DHT22;68323;49.394;8.434;2023-04-08T11:18:12;14.30;69.10
19817;DHT22;68323;49.394;8.434;2023-04-08T11:20:38;14.30;69.10
19817;DHT22;68323;49.394;8.434;2023-04-08T11:23:11;14.30;67.00
19817;DHT22;68323;49.394;8.434;2023-04-08T11:25:39;14.40;67.80
19817;DHT22;68323;49.394;8.434;2023-04-08T11:28:05;14.50;68.40
19817;DHT22;68323;49.394;8.434;2023-04-08T11:30:30;14.60;69.10
19817;DHT22;68323;49.394;8.434;2023-04-08T11:32:57;14.50;67.60
19817;DHT22;68323;49.394;8.434;2023-04-08T11:35:22;14.50;68.00
19817;DHT22;68323;49.394;8.434;2023-04-08T11:37:48;14.40;68.60
19817;DHT22;68323;49.394;8.434;2023-04-08T11:40:19;14.40;68.40
19817;DHT22;68323;49.394;8.434;2023-04-08T11:42:45;14.40;68.90
19817;DHT22;68323;49.394;8.434;2023-04-08T11:45:13;14.40;68.30
19817;DHT22;68323;49.394;8.434;2023-04-08T11:47:39;14.40;68.70
19817;DHT22;68323;49.394;8.434;2023-04-08T11:50:05;14.60;68.40
19817;DHT22;68323;49.394;8.434;2023-04-08T11:52:49;14.70;67.40
19817;DHT22;68323;49.394;8.434;2023-04-08T11:57:51;15.00;64.60
19817;DHT22;68323;49.394;8.434;2023-04-08T12:00:18;15.10;62.70
19817;DHT22;68323;49.394;8.434;2023-04-08T12:02:44;15.20;61.70
19817;DHT22;68323;49.394;8.434;2023-04-08T12:05:11;15.10;63.10
19817;DHT22;68323;49.394;8.434;2023-04-08T12:07:36;15.20;63.90
19817;DHT22;68323;49.394;8.434;2023-04-08T12:10:02;15.30;63.90
19817;DHT22;68323;49.394;8.434;2023-04-08T12:12:28;15.20;65.10
19817;DHT22;68323;49.394;8.434;2023-04-08T12:14:53;15.20;66.40
19817;DHT22;68323;49.394;8.434;2023-04-08T12:17:19;15.20;66.90
19817;DHT22;68323;49.394;8.434;2023-04-08T12:19:44;15.10;68.20
19817;DHT22;68323;49.394;8.434;2023-04-08T12:22:10;15.10;68.30
19817;DHT22;68323;49.394;8.434;2023-04-08T12:24:36;15.20;68.70
19817;DHT22;68323;49.394;8.434;2023-04-08T12:27:02;15.20;68.70
19817;DHT22;68323;49.394;8.434;2023-04-08T12:29:29;15.20;69.50
19817;DHT22;68323;49.394;8.434;2023-04-08T12:31:54;15.40;70.10
19817;DHT22;68323;49.394;8.434;2023-04-08T12:34:20;15.70;69.80
19817;DHT22;68323;49.394;8.434;2023-04-08T12:36:45;16.10;68.40
19817;DHT22;68323;49.394;8.434;2023-04-08T12:39:12;16.40;67.60
19817;DHT22;68323;49.394;8.434;2023-04-08T12:41:37;16.50;67.10
19817;DHT22;68323;49.394;8.434;2023-04-08T12:44:03;16.70;66.40
19817;DHT22;68323;49.394;8.434;2023-04-08T12:46:28;16.80;65.70
19817;DHT22;68323;49.394;8.434;2023-04-08T12:48:54;16.70;65.60
19817;DHT22;68323;49.394;8.434;2023-04-08T12:51:19;16.50;66.70
19817;DHT22;68323;49.394;8.434;2023-04-08T12:53:45;16.40;66.00
19817;DHT22;68323;49.394;8.434;2023-04-08T12:56:10;16.30;66.30
19817;DHT22;68323;49.394;8.434;2023-04-08T12:58:36;16.20;66.40
19817;DHT22;68323;49.394;8.434;2023-04-08T13:01:02;16.10;67.90
19817;DHT22;68323;49.394;8.434;2023-04-08T13:03:27;16.30;67.60
19817;DHT22;68323;49.394;8.434;2023-04-08T13:05:56;16.20;67.60
19817;DHT22;68323;49.394;8.434;2023-04-08T13:08:26;16.10;67.00
19817;DHT22;68323;49.394;8.434;2023-04-08T13:10:52;15.90;66.60
19817;DHT22;68323;49.394;8.434;2023-04-08T13:13:17;15.80;67.40
19817;DHT22;68323;49.394;8.434;2023-04-08T13:15:43;16.00;67.50
19817;DHT22;68323;49.394;8.434;2023-04-08T13:18:08;16.10;67.00
19817;DHT22;68323;49.394;8.434;2023-04-08T13:20:34;16.20;66.70
19817;DHT22;68323;49.394;8.434;2023-04-08T13:23:00;16.30;66.40
19817;DHT22;68323;49.394;8.434;2023-04-08T13:25:26;16.40;66.70
19817;DHT22;68323;49.394;8.434;2023-04-08T13:27:51;16.50;66.40
19817;DHT22;68323;49.394;8.434;2023-04-08T13:30:17;16.40;66.30
19817;DHT22;68323;49.394;8.434;2023-04-08T13:32:43;16.40;66.60
19817;DHT22;68323;49.394;8.434;2023-04-08T13:35:08;16.50;66.90
19817;DHT22;68323;49.394;8.434;2023-04-08T13:37:34;16.30;66.70
19817;DHT22;68323;49.394;8.434;2023-04-08T13:40:00;16.20;67.20
19817;DHT22;68323;49.394;8.434;2023-04-08T13:42:26;16.10;67.80
19817;DHT22;68323;49.394;8.434;2023-04-08T13:44:51;15.90;68.90
19817;DHT22;68323;49.394;8.434;2023-04-08T13:47:17;15.80;69.40
19817;DHT22;68323;49.394;8.434;2023-04-08T13:49:42;15.70;70.10
19817;DHT22;68323;49.394;8.434;2023-04-08T13:52:08;15.70;71.20
19817;DHT22;68323;49.394;8.434;2023-04-08T13:54:33;15.80;71.50
19817;DHT22;68323;49.394;8.434;2023-04-08T13:56:59;15.90;72.30
19817;DHT22;68323;49.394;8.434;2023-04-08T13:59:25;16.00;70.50
19817;DHT22;68323;49.394;8.434;2023-04-08T14:01:51;16.00;71.50
19817;DHT22;68323;49.394;8.434;2023-04-08T14:04:19;16.10;70.30
19817;DHT22;68323;49.394;8.434;2023-04-08T14:06:46;16.20;71.90
19817;DHT22;68323;49.394;8.434;2023-04-08T14:09:11;16.30;72.70
19817;DHT22;68323;49.394;8.434;2023-04-08T14:11:37;16.40;72.00
19817;DHT22;68323;49.394;8.434;2023-04-08T14:14:02;16.40;72.00
19817;DHT22;68323;49.394;8.434;2023-04-08T14:16:28;16.40;71.70
19817;DHT22;68323;49.394;8.434;2023-04-08T14:18:55;16.50;71.40
19817;DHT22;68323;49.394;8.434;2023-04-08T14:21:22;16.50;70.90
19817;DHT22;68323;49.394;8.434;2023-04-08T14:23:47;16.50;71.30
19817;DHT22;68323;49.394;8.434;2023-04-08T14:26:13;16.50;70.70
19817;DHT22;68323;49.394;8.434;2023-04-08T14:28:39;16.50;70.70
19817;DHT22;68323;49.394;8.434;2023-04-08T14:31:04;16.50;71.10
19817;DHT22;68323;49.394;8.434;2023-04-08T14:33:30;16.60;69.70
19817;DHT22;68323;49.394;8.434;2023-04-08T14:35:56;16.60;69.70
19817;DHT22;68323;49.394;8.434;2023-04-08T14:38:23;16.60;69.90
19817;DHT22;68323;49.394;8.434;2023-04-08T14:40:48;16.50;69.40
19817;DHT22;68323;49.394;8.434;2023-04-08T14:43:14;16.40;69.30
19817;DHT22;68323;49.394;8.434;2023-04-08T14:45:40;16.30;70.10
19817;DHT22;68323;49.394;8.434;2023-04-08T14:48:06;16.30;70.40
19817;DHT22;68323;49.394;8.434;2023-04-08T14:50:32;16.30;70.70
19817;DHT22;68323;49.394;8.434;2023-04-08T14:52:57;16.20;71.00
19817;DHT22;68323;49.394;8.434;2023-04-08T14:55:23;16.10;71.90
19817;DHT22;68323;49.394;8.434;2023-04-08T14:57:49;15.90;72.50
19817;DHT22;68323;49.394;8.434;2023-04-08T15:00:15;15.90;73.20
19817;DHT22;68323;49.394;8.434;2023-04-08T15:02:40;15.80;73.40
19817;DHT22;68323;49.394;8.434;2023-04-08T15:05:06;15.90;73.60
19817;DHT22;68323;49.394;8.434;2023-04-08T15:07:32;15.80;72.90
19817;DHT22;68323;49.394;8.434;2023-04-08T15:09:58;15.70;73.20
19817;DHT22;68323;49.394;8.434;2023-04-08T15:12:24;15.70;73.40
19817;DHT22;68323;49.394;8.434;2023-04-08T15:14:49;15.60;74.40
19817;DHT22;68323;49.394;8.434;2023-04-08T15:17:15;15.50;73.80
19817;DHT22;68323;49.394;8.434;2023-04-08T15:19:41;15.40;75.10
19817;DHT22;68323;49.394;8.434;2023-04-08T15:22:06;15.30;75.10
19817;DHT22;68323;49.394;8.434;2023-04-08T15:24:32;15.30;75.40
19817;DHT22;68323;49.394;8.434;2023-04-08T15:26:57;15.20;76.00
19817;DHT22;68323;49.394;8.434;2023-04-08T15:29:23;15.20;76.10
19817;DHT22;68323;49.394;8.434;2023-04-08T15:31:49;15.10;76.30
19817;DHT22;68323;49.394;8.434;2023-04-08T15:34:14;15.00;77.20
19817;DHT22;68323;49.394;8.434;2023-04-08T15:36:40;15.00;77.40
19817;DHT22;68323;49.394;8.434;2023-04-08T15:39:05;14.80;78.00
19817;DHT22;68323;49.394;8.434;2023-04-08T15:41:31;14.80;78.20
19817;DHT22;68323;49.394;8.434;2023-04-08T15:43:57;14.90;78.00
19817;DHT22;68323;49.394;8.434;2023-04-08T15:46:22;14.80;77.90
19817;DHT22;68323;49.394;8.434;2023-04-08T15:48:48;14.70;78.30
19817;DHT22;68323;49.394;8.434;2023-04-08T15:51:14;14.70;78.30
19817;DHT22;68323;49.394;8.434;2023-04-08T15:53:40;14.70;78.70
19817;DHT22;68323;49.394;8.434;2023-04-08T15:56:05;14.70;79.10
19817;DHT22;68323;49.394;8.434;2023-04-08T15:58:36;14.70;79.60